sensor_id;sensor_type;location;lat;lon;timestamp;temperature;humidity
16825;DHT22;8529;48.108;-1.706;2023-03-12T00:01:40;10.40;99.90
16825;DHT22;8529;48.108;-1.706;2023-03-12T00:04:06;10.30;99.90
16825;DHT22;8529;48.108;-1.706;2023-03-12T00:06:33;10.30;99.90
16825;DHT22;8529;48.108;-1.706;2023-03-12T00:09:00;10.30;99.90
16825;DHT22;8529;48.108;-1.706;2023-03-12T00:11:29;10.30;99.90
16825;DHT22;8529;48.108;-1.706;2023-03-12T00:13:57;10.30;99.90
16825;DHT22;8529;48.108;-1.706;2023-03-12T00:16:26;10.20;99.90
16825;DHT22;8529;48.108;-1.706;2023-03-12T00:18:54;10.20;99.90
16825;DHT22;8529;48.108;-1.706;2023-03-12T00:21:22;10.20;99.90
16825;DHT22;8529;48.108;-1.706;2023-03-12T00:23:50;10.10;99.90
16825;DHT22;8529;48.108;-1.706;2023-03-12T00:26:18;10.10;99.90
16825;DHT22;8529;48.108;-1.706;2023-03-12T00:28:48;10.00;99.90
16825;DHT22;8529;48.108;-1.706;2023-03-12T00:31:17;10.00;99.90
16825;DHT22;8529;48.108;-1.706;2023-03-12T00:33:45;10.00;99.90
16825;DHT22;8529;48.108;-1.706;2023-03-12T00:36:14;10.00;99.90
16825;DHT22;8529;48.108;-1.706;2023-03-12T00:38:41;10.10;99.90
16825;DHT22;8529;48.108;-1.706;2023-03-12T00:41:08;10.10;99.90
16825;DHT22;8529;48.108;-1.706;2023-03-12T00:43:35;10.10;99.90
16825;DHT22;8529;48.108;-1.706;2023-03-12T00:46:03;10.10;99.90
16825;DHT22;8529;48.108;-1.706;2023-03-12T00:48:30;10.10;99.90
16825;DHT22;8529;48.108;-1.706;2023-03-12T00:50:57;10.20;99.90
16825;DHT22;8529;48.108;-1.706;2023-03-12T00:53:24;10.20;99.90
16825;DHT22;8529;48.108;-1.706;2023-03-12T00:55:51;10.20;99.90
16825;DHT22;8529;48.108;-1.706;2023-03-12T00:58:18;10.20;99.90
16825;DHT22;8529;48.108;-1.706;2023-03-12T01:00:45;10.20;99.90
16825;DHT22;8529;48.108;-1.706;2023-03-12T01:03:13;10.20;99.90
16825;DHT22;8529;48.108;-1.706;2023-03-12T01:05:40;10.20;99.90
16825;DHT22;8529;48.108;-1.706;2023-03-12T01:08:07;10.20;99.90
16825;DHT22;8529;48.108;-1.706;2023-03-12T01:10:35;10.20;99.90
16825;DHT22;8529;48.108;-1.706;2023-03-12T01:13:02;10.20;99.90
16825;DHT22;8529;48.108;-1.706;2023-03-12T01:15:29;10.10;99.90
16825;DHT22;8529;48.108;-1.706;2023-03-12T01:17:56;10.10;99.90
16825;DHT22;8529;48.108;-1.706;2023-03-12T01:20:25;10.00;99.90
16825;DHT22;8529;48.108;-1.706;2023-03-12T01:22:52;10.00;99.90
16825;DHT22;8529;48.108;-1.706;2023-03-12T01:25:19;10.00;99.90
16825;DHT22;8529;48.108;-1.706;2023-03-12T01:27:45;9.90;99.90
16825;DHT22;8529;48.108;-1.706;2023-03-12T01:30:13;9.90;99.90
16825;DHT22;8529;48.108;-1.706;2023-03-12T01:32:40;9.80;99.90
16825;DHT22;8529;48.108;-1.706;2023-03-12T01:35:08;9.80;99.90
16825;DHT22;8529;48.108;-1.706;2023-03-12T01:37:36;9.70;99.90
16825;DHT22;8529;48.108;-1.706;2023-03-12T01:40:04;9.60;99.90
16825;DHT22;8529;48.108;-1.706;2023-03-12T01:42:31;9.60;99.90
16825;DHT22;8529;48.108;-1.706;2023-03-12T01:44:59;9.50;99.90
16825;DHT22;8529;48.108;-1.706;2023-03-12T01:47:28;9.40;99.90
16825;DHT22;8529;48.108;-1.706;2023-03-12T01:49:57;9.40;99.90
16825;DHT22;8529;48.108;-1.706;2023-03-12T01:52:27;9.30;99.90
16825;DHT22;8529;48.108;-1.706;2023-03-12T01:54:59;9.30;99.90
16825;DHT22;8529;48.108;-1.706;2023-03-12T01:57:30;9.20;99.90
16825;DHT22;8529;48.108;-1.706;2023-03-12T02:00:00;9.20;99.90
16825;DHT22;8529;48.108;-1.706;2023-03-12T02:02:29;9.20;99.90
16825;DHT22;8529;48.108;-1.706;2023-03-12T02:05:04;9.20;99.90
16825;DHT22;8529;48.108;-1.706;2023-03-12T02:07:33;9.20;99.90
16825;DHT22;8529;48.108;-1.706;2023-03-12T02:10:03;9.10;99.90
16825;DHT22;8529;48.108;-1.706;2023-03-12T02:12:30;9.00;99.90
16825;DHT22;8529;48.108;-1.706;2023-03-12T02:14:57;9.00;99.90
16825;DHT22;8529;48.108;-1.706;2023-03-12T02:17:23;9.00;99.90
16825;DHT22;8529;48.108;-1.706;2023-03-12T02:19:57;9.10;99.90
16825;DHT22;8529;48.108;-1.706;2023-03-12T02:22:26;9.10;99.90
16825;DHT22;8529;48.108;-1.706;2023-03-12T02:24:57;9.10;99.90
16825;DHT22;8529;48.108;-1.706;2023-03-12T02:27:31;9.10;99.90
16825;DHT22;8529;48.108;-1.706;2023-03-12T02:29:59;9.10;99.90
16825;DHT22;8529;48.108;-1.706;2023-03-12T02:32:28;9.00;99.90
16825;DHT22;8529;48.108;-1.706;2023-03-12T02:34:59;8.90;99.90
16825;DHT22;8529;48.108;-1.706;2023-03-12T02:37:26;8.90;99.90
16825;DHT22;8529;48.108;-1.706;2023-03-12T02:39:56;8.80;99.90
16825;DHT22;8529;48.108;-1.706;2023-03-12T02:42:25;8.90;99.90
16825;DHT22;8529;48.108;-1.706;2023-03-12T02:44:54;8.90;99.90
16825;DHT22;8529;48.108;-1.706;2023-03-12T02:47:21;8.90;99.90
16825;DHT22;8529;48.108;-1.706;2023-03-12T02:49:48;8.90;99.90
16825;DHT22;8529;48.108;-1.706;2023-03-12T02:52:15;8.90;99.90
16825;DHT22;8529;48.108;-1.706;2023-03-12T02:54:42;8.90;99.90
16825;DHT22;8529;48.108;-1.706;2023-03-12T02:57:08;8.80;99.90
16825;DHT22;8529;48.108;-1.706;2023-03-12T02:59:35;8.80;99.90
16825;DHT22;8529;48.108;-1.706;2023-03-12T03:02:04;8.90;99.90
16825;DHT22;8529;48.108;-1.706;2023-03-12T03:04:31;8.90;99.90
16825;DHT22;8529;48.108;-1.706;2023-03-12T03:07:00;8.90;99.90
16825;DHT22;8529;48.108;-1.706;2023-03-12T03:09:27;8.80;99.90
16825;DHT22;8529;48.108;-1.706;2023-03-12T03:11:54;8.70;99.90
16825;DHT22;8529;48.108;-1.706;2023-03-12T03:14:20;8.70;99.90
16825;DHT22;8529;48.108;-1.706;2023-03-12T03:16:47;8.70;99.90
16825;DHT22;8529;48.108;-1.706;2023-03-12T03:19:16;8.60;99.90
16825;DHT22;8529;48.108;-1.706;2023-03-12T03:21:44;8.60;99.90
16825;DHT22;8529;48.108;-1.706;2023-03-12T03:24:10;8.60;99.90
16825;DHT22;8529;48.108;-1.706;2023-03-12T03:26:37;8.60;99.90
16825;DHT22;8529;48.108;-1.706;2023-03-12T03:29:04;8.50;99.90
16825;DHT22;8529;48.108;-1.706;2023-03-12T03:31:31;8.50;99.90
16825;DHT22;8529;48.108;-1.706;2023-03-12T03:33:58;8.60;99.90
16825;DHT22;8529;48.108;-1.706;2023-03-12T03:36:27;8.60;99.90
16825;DHT22;8529;48.108;-1.706;2023-03-12T03:38:53;8.60;99.90
16825;DHT22;8529;48.108;-1.706;2023-03-12T03:41:20;8.50;99.90
16825;DHT22;8529;48.108;-1.706;2023-03-12T03:43:48;8.50;99.90
16825;DHT22;8529;48.108;-1.706;2023-03-12T03:46:15;8.50;99.90
16825;DHT22;8529;48.108;-1.706;2023-03-12T03:48:42;8.50;99.90
16825;DHT22;8529;48.108;-1.706;2023-03-12T03:51:10;8.50;99.90
16825;DHT22;8529;48.108;-1.706;2023-03-12T03:53:38;8.50;99.90
16825;DHT22;8529;48.108;-1.706;2023-03-12T03:56:06;8.50;99.90
16825;DHT22;8529;48.108;-1.706;2023-03-12T03:58:34;8.40;99.90
16825;DHT22;8529;48.108;-1.706;2023-03-12T04:01:01;8.40;99.90
16825;DHT22;8529;48.108;-1.706;2023-03-12T04:03:28;8.40;99.90
16825;DHT22;8529;48.108;-1.706;2023-03-12T04:05:56;8.40;99.90
16825;DHT22;8529;48.108;-1.706;2023-03-12T04:08:24;8.40;99.90
16825;DHT22;8529;48.108;-1.706;2023-03-12T04:10:53;8.40;99.90
16825;DHT22;8529;48.108;-1.706;2023-03-12T04:13:20;8.40;99.90
16825;DHT22;8529;48.108;-1.706;2023-03-12T04:15:48;8.40;99.90
16825;DHT22;8529;48.108;-1.706;2023-03-12T04:18:15;8.40;99.90
16825;DHT22;8529;48.108;-1.706;2023-03-12T04:20:42;8.40;99.90
16825;DHT22;8529;48.108;-1.706;2023-03-12T04:23:09;8.40;99.90
16825;DHT22;8529;48.108;-1.706;2023-03-12T04:25:37;8.50;99.90
16825;DHT22;8529;48.108;-1.706;2023-03-12T04:28:05;8.50;99.90
16825;DHT22;8529;48.108;-1.706;2023-03-12T04:30:32;8.50;99.90
16825;DHT22;8529;48.108;-1.706;2023-03-12T04:32:59;8.50;99.90
16825;DHT22;8529;48.108;-1.706;2023-03-12T04:35:26;8.40;99.90
16825;DHT22;8529;48.108;-1.706;2023-03-12T04:37:53;8.30;99.90
16825;DHT22;8529;48.108;-1.706;2023-03-12T04:40:20;8.30;99.90
16825;DHT22;8529;48.108;-1.706;2023-03-12T04:42:47;8.20;99.90
16825;DHT22;8529;48.108;-1.706;2023-03-12T04:45:15;8.20;99.90
16825;DHT22;8529;48.108;-1.706;2023-03-12T04:47:42;8.20;99.90
16825;DHT22;8529;48.108;-1.706;2023-03-12T04:50:10;8.20;99.90
16825;DHT22;8529;48.108;-1.706;2023-03-12T04:52:38;8.20;99.90
16825;DHT22;8529;48.108;-1.706;2023-03-12T04:55:05;8.30;99.90
16825;DHT22;8529;48.108;-1.706;2023-03-12T04:57:33;8.30;99.90
16825;DHT22;8529;48.108;-1.706;2023-03-12T04:59:59;8.30;99.90
16825;DHT22;8529;48.108;-1.706;2023-03-12T05:02:28;8.30;99.90
16825;DHT22;8529;48.108;-1.706;2023-03-12T05:04:55;8.40;99.90
16825;DHT22;8529;48.108;-1.706;2023-03-12T05:07:22;8.40;99.90
16825;DHT22;8529;48.108;-1.706;2023-03-12T05:09:49;8.30;99.90
16825;DHT22;8529;48.108;-1.706;2023-03-12T05:12:16;8.20;99.90
16825;DHT22;8529;48.108;-1.706;2023-03-12T05:14:43;8.30;99.90
16825;DHT22;8529;48.108;-1.706;2023-03-12T05:17:10;8.20;99.90
16825;DHT22;8529;48.108;-1.706;2023-03-12T05:19:38;8.20;99.90
16825;DHT22;8529;48.108;-1.706;2023-03-12T05:22:05;8.20;99.90
16825;DHT22;8529;48.108;-1.706;2023-03-12T05:24:32;8.30;99.90
16825;DHT22;8529;48.108;-1.706;2023-03-12T05:26:59;8.30;99.90
16825;DHT22;8529;48.108;-1.706;2023-03-12T05:29:25;8.40;99.90
16825;DHT22;8529;48.108;-1.706;2023-03-12T05:31:54;8.30;99.90
16825;DHT22;8529;48.108;-1.706;2023-03-12T05:34:21;8.30;99.90
16825;DHT22;8529;48.108;-1.706;2023-03-12T05:36:49;8.30;99.90
16825;DHT22;8529;48.108;-1.706;2023-03-12T05:39:16;8.30;99.90
16825;DHT22;8529;48.108;-1.706;2023-03-12T05:41:42;8.20;99.90
16825;DHT22;8529;48.108;-1.706;2023-03-12T05:44:10;8.20;99.90
16825;DHT22;8529;48.108;-1.706;2023-03-12T05:46:38;8.20;99.90
16825;DHT22;8529;48.108;-1.706;2023-03-12T05:49:05;8.20;99.90
16825;DHT22;8529;48.108;-1.706;2023-03-12T05:51:32;8.30;99.90
16825;DHT22;8529;48.108;-1.706;2023-03-12T05:54:00;8.50;99.90
16825;DHT22;8529;48.108;-1.706;2023-03-12T05:56:27;8.60;99.90
16825;DHT22;8529;48.108;-1.706;2023-03-12T05:58:54;8.70;99.90
16825;DHT22;8529;48.108;-1.706;2023-03-12T06:01:23;8.70;99.90
16825;DHT22;8529;48.108;-1.706;2023-03-12T06:03:50;8.80;99.90
16825;DHT22;8529;48.108;-1.706;2023-03-12T06:06:17;8.80;99.90
16825;DHT22;8529;48.108;-1.706;2023-03-12T06:08:44;8.80;99.90
16825;DHT22;8529;48.108;-1.706;2023-03-12T06:11:13;8.90;99.90
16825;DHT22;8529;48.108;-1.706;2023-03-12T06:13:40;8.80;99.90
16825;DHT22;8529;48.108;-1.706;2023-03-12T06:16:10;8.90;99.90
16825;DHT22;8529;48.108;-1.706;2023-03-12T06:18:37;8.90;99.90
16825;DHT22;8529;48.108;-1.706;2023-03-12T06:21:09;8.90;99.90
16825;DHT22;8529;48.108;-1.706;2023-03-12T06:23:36;8.90;99.90
16825;DHT22;8529;48.108;-1.706;2023-03-12T06:26:03;9.00;99.90
16825;DHT22;8529;48.108;-1.706;2023-03-12T06:28:32;9.00;99.90
16825;DHT22;8529;48.108;-1.706;2023-03-12T06:30:59;8.90;99.90
16825;DHT22;8529;48.108;-1.706;2023-03-12T06:33:26;8.90;99.90
16825;DHT22;8529;48.108;-1.706;2023-03-12T06:35:53;8.90;99.90
16825;DHT22;8529;48.108;-1.706;2023-03-12T06:38:21;8.80;99.90
16825;DHT22;8529;48.108;-1.706;2023-03-12T06:40:55;8.80;99.90
16825;DHT22;8529;48.108;-1.706;2023-03-12T06:43:22;8.70;99.90
16825;DHT22;8529;48.108;-1.706;2023-03-12T06:45:52;8.70;99.90
16825;DHT22;8529;48.108;-1.706;2023-03-12T06:48:19;8.60;99.90
16825;DHT22;8529;48.108;-1.706;2023-03-12T06:50:46;8.50;99.90
16825;DHT22;8529;48.108;-1.706;2023-03-12T06:53:13;8.50;99.90
16825;DHT22;8529;48.108;-1.706;2023-03-12T06:55:40;8.60;99.90
16825;DHT22;8529;48.108;-1.706;2023-03-12T06:58:08;8.60;99.90
16825;DHT22;8529;48.108;-1.706;2023-03-12T07:00:35;8.60;99.90
16825;DHT22;8529;48.108;-1.706;2023-03-12T07:03:04;8.70;99.90
16825;DHT22;8529;48.108;-1.706;2023-03-12T07:05:30;8.70;99.90
16825;DHT22;8529;48.108;-1.706;2023-03-12T07:07:57;8.70;99.90
16825;DHT22;8529;48.108;-1.706;2023-03-12T07:10:24;8.80;99.90
16825;DHT22;8529;48.108;-1.706;2023-03-12T07:12:52;8.70;99.90
16825;DHT22;8529;48.108;-1.706;2023-03-12T07:15:19;8.80;99.90
16825;DHT22;8529;48.108;-1.706;2023-03-12T07:17:46;8.70;99.90
16825;DHT22;8529;48.108;-1.706;2023-03-12T07:20:15;8.70;99.90
16825;DHT22;8529;48.108;-1.706;2023-03-12T07:22:42;8.80;99.90
16825;DHT22;8529;48.108;-1.706;2023-03-12T07:25:09;8.80;99.90
16825;DHT22;8529;48.108;-1.706;2023-03-12T07:27:36;8.80;99.90
16825;DHT22;8529;48.108;-1.706;2023-03-12T07:30:04;8.90;99.90
16825;DHT22;8529;48.108;-1.706;2023-03-12T07:32:31;8.90;99.90
16825;DHT22;8529;48.108;-1.706;2023-03-12T07:34:59;8.90;99.90
16825;DHT22;8529;48.108;-1.706;2023-03-12T07:37:27;9.00;99.90
16825;DHT22;8529;48.108;-1.706;2023-03-12T07:39:54;9.10;99.90
16825;DHT22;8529;48.108;-1.706;2023-03-12T07:42:21;9.20;99.90
16825;DHT22;8529;48.108;-1.706;2023-03-12T07:44:48;9.30;99.90
16825;DHT22;8529;48.108;-1.706;2023-03-12T07:47:15;9.30;99.90
16825;DHT22;8529;48.108;-1.706;2023-03-12T07:49:42;9.40;99.90
16825;DHT22;8529;48.108;-1.706;2023-03-12T07:52:09;9.40;99.90
16825;DHT22;8529;48.108;-1.706;2023-03-12T07:54:37;9.50;99.90
16825;DHT22;8529;48.108;-1.706;2023-03-12T07:57:04;9.50;99.90
16825;DHT22;8529;48.108;-1.706;2023-03-12T07:59:32;9.50;99.90
16825;DHT22;8529;48.108;-1.706;2023-03-12T08:01:59;9.60;99.90
16825;DHT22;8529;48.108;-1.706;2023-03-12T08:04:25;9.60;99.90
16825;DHT22;8529;48.108;-1.706;2023-03-12T08:06:52;9.60;99.90
16825;DHT22;8529;48.108;-1.706;2023-03-12T08:09:19;9.70;99.90
16825;DHT22;8529;48.108;-1.706;2023-03-12T08:11:47;9.70;99.90
16825;DHT22;8529;48.108;-1.706;2023-03-12T08:14:14;9.70;99.90
16825;DHT22;8529;48.108;-1.706;2023-03-12T08:16:41;9.80;99.90
16825;DHT22;8529;48.108;-1.706;2023-03-12T08:19:08;9.80;99.90
16825;DHT22;8529;48.108;-1.706;2023-03-12T08:21:35;9.80;99.90
16825;DHT22;8529;48.108;-1.706;2023-03-12T08:24:02;9.90;99.90
16825;DHT22;8529;48.108;-1.706;2023-03-12T08:26:29;9.90;99.90
16825;DHT22;8529;48.108;-1.706;2023-03-12T08:28:57;10.00;99.90
16825;DHT22;8529;48.108;-1.706;2023-03-12T08:31:25;10.00;99.90
16825;DHT22;8529;48.108;-1.706;2023-03-12T08:33:52;10.00;99.90
16825;DHT22;8529;48.108;-1.706;2023-03-12T08:36:18;10.10;99.90
16825;DHT22;8529;48.108;-1.706;2023-03-12T08:38:45;10.10;99.90
16825;DHT22;8529;48.108;-1.706;2023-03-12T08:41:12;10.10;99.90
16825;DHT22;8529;48.108;-1.706;2023-03-12T08:43:39;10.10;99.90
16825;DHT22;8529;48.108;-1.706;2023-03-12T08:46:08;10.10;99.90
16825;DHT22;8529;48.108;-1.706;2023-03-12T08:48:35;10.20;99.90
16825;DHT22;8529;48.108;-1.706;2023-03-12T08:51:02;10.20;99.90
16825;DHT22;8529;48.108;-1.706;2023-03-12T08:53:31;10.20;99.90
16825;DHT22;8529;48.108;-1.706;2023-03-12T08:55:58;10.20;99.90
16825;DHT22;8529;48.108;-1.706;2023-03-12T08:58:26;10.20;99.90
16825;DHT22;8529;48.108;-1.706;2023-03-12T09:00:53;10.30;99.90
16825;DHT22;8529;48.108;-1.706;2023-03-12T09:03:23;10.30;99.90
16825;DHT22;8529;48.108;-1.706;2023-03-12T09:05:50;10.40;99.90
16825;DHT22;8529;48.108;-1.706;2023-03-12T09:08:27;10.40;99.90
16825;DHT22;8529;48.108;-1.706;2023-03-12T09:10:54;10.50;99.90
16825;DHT22;8529;48.108;-1.706;2023-03-12T09:13:20;10.50;99.90
16825;DHT22;8529;48.108;-1.706;2023-03-12T09:15:47;10.50;99.90
16825;DHT22;8529;48.108;-1.706;2023-03-12T09:18:14;10.60;99.90
16825;DHT22;8529;48.108;-1.706;2023-03-12T09:20:42;10.60;99.90
16825;DHT22;8529;48.108;-1.706;2023-03-12T09:23:09;10.70;99.90
16825;DHT22;8529;48.108;-1.706;2023-03-12T09:25:36;10.70;99.90
16825;DHT22;8529;48.108;-1.706;2023-03-12T09:28:03;10.70;99.90
16825;DHT22;8529;48.108;-1.706;2023-03-12T09:30:30;10.70;99.90
16825;DHT22;8529;48.108;-1.706;2023-03-12T09:32:57;10.70;99.90
16825;DHT22;8529;48.108;-1.706;2023-03-12T09:35:24;10.80;99.90
16825;DHT22;8529;48.108;-1.706;2023-03-12T09:37:52;10.90;99.90
16825;DHT22;8529;48.108;-1.706;2023-03-12T09:40:21;10.90;99.90
16825;DHT22;8529;48.108;-1.706;2023-03-12T09:42:51;11.00;99.90
16825;DHT22;8529;48.108;-1.706;2023-03-12T09:45:22;11.00;99.90
16825;DHT22;8529;48.108;-1.706;2023-03-12T09:47:52;11.10;99.90
16825;DHT22;8529;48.108;-1.706;2023-03-12T09:50:24;11.10;99.90
16825;DHT22;8529;48.108;-1.706;2023-03-12T09:52:57;11.20;99.90
16825;DHT22;8529;48.108;-1.706;2023-03-12T09:55:26;11.20;99.90
16825;DHT22;8529;48.108;-1.706;2023-03-12T09:57:54;11.30;99.90
16825;DHT22;8529;48.108;-1.706;2023-03-12T10:00:26;11.30;99.90
16825;DHT22;8529;48.108;-1.706;2023-03-12T10:06:02;11.40;99.90
16825;DHT22;8529;48.108;-1.706;2023-03-12T10:08:42;11.40;99.90
16825;DHT22;8529;48.108;-1.706;2023-03-12T10:11:19;11.50;99.90
16825;DHT22;8529;48.108;-1.706;2023-03-12T10:14:01;11.50;99.90
16825;DHT22;8529;48.108;-1.706;2023-03-12T10:16:43;11.50;99.90
16825;DHT22;8529;48.108;-1.706;2023-03-12T10:19:28;11.50;99.90
16825;DHT22;8529;48.108;-1.706;2023-03-12T10:22:00;11.50;99.90
16825;DHT22;8529;48.108;-1.706;2023-03-12T10:24:43;11.60;99.90
16825;DHT22;8529;48.108;-1.706;2023-03-12T10:27:14;11.60;99.90
16825;DHT22;8529;48.108;-1.706;2023-03-12T10:29:44;11.60;99.90
16825;DHT22;8529;48.108;-1.706;2023-03-12T10:32:15;11.60;99.90
16825;DHT22;8529;48.108;-1.706;2023-03-12T10:34:45;11.70;99.90
16825;DHT22;8529;48.108;-1.706;2023-03-12T10:37:16;11.70;99.90
16825;DHT22;8529;48.108;-1.706;2023-03-12T10:39:45;11.70;99.90
16825;DHT22;8529;48.108;-1.706;2023-03-12T10:42:16;11.70;99.90
16825;DHT22;8529;48.108;-1.706;2023-03-12T10:44:45;11.70;99.90
16825;DHT22;8529;48.108;-1.706;2023-03-12T10:47:33;11.70;99.90
16825;DHT22;8529;48.108;-1.706;2023-03-12T10:50:16;11.80;99.90
16825;DHT22;8529;48.108;-1.706;2023-03-12T10:52:44;11.90;99.90
16825;DHT22;8529;48.108;-1.706;2023-03-12T10:55:20;11.90;99.90
16825;DHT22;8529;48.108;-1.706;2023-03-12T10:57:48;11.90;99.90
16825;DHT22;8529;48.108;-1.706;2023-03-12T11:00:19;11.90;99.90
16825;DHT22;8529;48.108;-1.706;2023-03-12T11:02:55;11.90;99.90
16825;DHT22;8529;48.108;-1.706;2023-03-12T11:05:24;11.90;99.90
16825;DHT22;8529;48.108;-1.706;2023-03-12T11:07:52;12.00;99.90
16825;DHT22;8529;48.108;-1.706;2023-03-12T11:10:25;12.10;99.90
16825;DHT22;8529;48.108;-1.706;2023-03-12T11:13:01;12.10;99.90
16825;DHT22;8529;48.108;-1.706;2023-03-12T11:15:36;12.10;99.90
16825;DHT22;8529;48.108;-1.706;2023-03-12T11:18:22;12.10;99.90
16825;DHT22;8529;48.108;-1.706;2023-03-12T11:20:52;12.10;99.90
16825;DHT22;8529;48.108;-1.706;2023-03-12T11:23:23;12.10;99.90
16825;DHT22;8529;48.108;-1.706;2023-03-12T11:25:57;12.10;99.90
16825;DHT22;8529;48.108;-1.706;2023-03-12T11:28:35;12.10;99.90
16825;DHT22;8529;48.108;-1.706;2023-03-12T11:31:02;12.00;99.90
16825;DHT22;8529;48.108;-1.706;2023-03-12T11:33:29;12.00;99.90
16825;DHT22;8529;48.108;-1.706;2023-03-12T11:36:10;12.10;99.90
16825;DHT22;8529;48.108;-1.706;2023-03-12T11:38:45;12.10;99.90
16825;DHT22;8529;48.108;-1.706;2023-03-12T11:41:31;12.10;99.90
16825;DHT22;8529;48.108;-1.706;2023-03-12T11:44:21;12.10;99.90
16825;DHT22;8529;48.108;-1.706;2023-03-12T11:47:05;12.20;99.90
16825;DHT22;8529;48.108;-1.706;2023-03-12T11:49:50;12.20;99.90
16825;DHT22;8529;48.108;-1.706;2023-03-12T11:52:26;12.20;99.90
16825;DHT22;8529;48.108;-1.706;2023-03-12T11:57:57;12.20;99.90
16825;DHT22;8529;48.108;-1.706;2023-03-12T12:00:32;12.30;99.90
16825;DHT22;8529;48.108;-1.706;2023-03-12T12:06:01;12.40;99.90
16825;DHT22;8529;48.108;-1.706;2023-03-12T12:11:27;12.50;99.90
16825;DHT22;8529;48.108;-1.706;2023-03-12T12:14:07;12.50;99.90
16825;DHT22;8529;48.108;-1.706;2023-03-12T12:16:57;12.60;99.90
16825;DHT22;8529;48.108;-1.706;2023-03-12T12:19:37;12.60;99.90
16825;DHT22;8529;48.108;-1.706;2023-03-12T12:22:23;12.60;99.90
16825;DHT22;8529;48.108;-1.706;2023-03-12T12:30:58;12.70;99.90
16825;DHT22;8529;48.108;-1.706;2023-03-12T12:33:36;12.70;99.90
16825;DHT22;8529;48.108;-1.706;2023-03-12T12:36:08;12.70;99.90
16825;DHT22;8529;48.108;-1.706;2023-03-12T12:38:38;12.70;99.90
16825;DHT22;8529;48.108;-1.706;2023-03-12T12:41:09;12.80;99.90
16825;DHT22;8529;48.108;-1.706;2023-03-12T12:43:38;12.70;99.90
16825;DHT22;8529;48.108;-1.706;2023-03-12T12:46:09;12.80;99.90
16825;DHT22;8529;48.108;-1.706;2023-03-12T12:48:40;12.70;99.90
16825;DHT22;8529;48.108;-1.706;2023-03-12T12:51:09;12.70;99.90
16825;DHT22;8529;48.108;-1.706;2023-03-12T12:53:42;12.70;99.90
16825;DHT22;8529;48.108;-1.706;2023-03-12T12:56:16;12.70;99.90
16825;DHT22;8529;48.108;-1.706;2023-03-12T13:01:43;12.70;99.90
16825;DHT22;8529;48.108;-1.706;2023-03-12T13:04:12;12.70;99.90
16825;DHT22;8529;48.108;-1.706;2023-03-12T13:07:01;12.70;99.90
16825;DHT22;8529;48.108;-1.706;2023-03-12T13:09:37;12.80;99.90
16825;DHT22;8529;48.108;-1.706;2023-03-12T13:12:19;12.80;99.90
16825;DHT22;8529;48.108;-1.706;2023-03-12T13:14:47;12.80;99.90
16825;DHT22;8529;48.108;-1.706;2023-03-12T13:17:55;12.80;99.90
16825;DHT22;8529;48.108;-1.706;2023-03-12T13:20:27;12.90;99.90
16825;DHT22;8529;48.108;-1.706;2023-03-12T13:23:02;13.00;99.90
16825;DHT22;8529;48.108;-1.706;2023-03-12T13:25:50;13.00;99.90
16825;DHT22;8529;48.108;-1.706;2023-03-12T13:28:36;13.00;99.90
16825;DHT22;8529;48.108;-1.706;2023-03-12T13:31:33;13.00;99.90
16825;DHT22;8529;48.108;-1.706;2023-03-12T13:40:37;12.90;99.90
16825;DHT22;8529;48.108;-1.706;2023-03-12T13:43:10;12.90;99.90
16825;DHT22;8529;48.108;-1.706;2023-03-12T13:45:54;12.90;99.90
16825;DHT22;8529;48.108;-1.706;2023-03-12T13:48:22;12.90;99.90
16825;DHT22;8529;48.108;-1.706;2023-03-12T13:50:53;13.00;99.90
16825;DHT22;8529;48.108;-1.706;2023-03-12T13:53:23;12.90;99.90
16825;DHT22;8529;48.108;-1.706;2023-03-12T13:56:00;12.90;99.90
16825;DHT22;8529;48.108;-1.706;2023-03-12T13:58:29;12.90;99.90
16825;DHT22;8529;48.108;-1.706;2023-03-12T14:01:00;12.80;99.90
16825;DHT22;8529;48.108;-1.706;2023-03-12T14:03:31;12.80;99.90
16825;DHT22;8529;48.108;-1.706;2023-03-12T14:06:09;12.80;99.90
16825;DHT22;8529;48.108;-1.706;2023-03-12T14:08:45;12.80;99.90
16825;DHT22;8529;48.108;-1.706;2023-03-12T14:11:31;12.80;99.90
16825;DHT22;8529;48.108;-1.706;2023-03-12T14:14:21;12.80;99.90
16825;DHT22;8529;48.108;-1.706;2023-03-12T14:16:52;12.80;99.90
16825;DHT22;8529;48.108;-1.706;2023-03-12T14:19:23;12.80;99.90
16825;DHT22;8529;48.108;-1.706;2023-03-12T14:21:52;12.80;99.90
16825;DHT22;8529;48.108;-1.706;2023-03-12T14:24:24;12.80;99.90
16825;DHT22;8529;48.108;-1.706;2023-03-12T14:26:53;12.80;99.90
16825;DHT22;8529;48.108;-1.706;2023-03-12T14:29:25;12.80;99.90
16825;DHT22;8529;48.108;-1.706;2023-03-12T14:31:56;12.90;99.90
16825;DHT22;8529;48.108;-1.706;2023-03-12T14:34:25;12.90;99.90
16825;DHT22;8529;48.108;-1.706;2023-03-12T14:36:59;12.90;99.90
16825;DHT22;8529;48.108;-1.706;2023-03-12T14:39:33;12.90;99.90
16825;DHT22;8529;48.108;-1.706;2023-03-12T14:42:01;12.80;99.90
16825;DHT22;8529;48.108;-1.706;2023-03-12T14:44:31;12.80;99.90
16825;DHT22;8529;48.108;-1.706;2023-03-12T14:47:00;12.80;99.90
16825;DHT22;8529;48.108;-1.706;2023-03-12T14:49:27;12.80;99.90
16825;DHT22;8529;48.108;-1.706;2023-03-12T14:51:56;12.70;99.90
16825;DHT22;8529;48.108;-1.706;2023-03-12T14:54:26;12.70;99.90
16825;DHT22;8529;48.108;-1.706;2023-03-12T14:56:53;12.80;99.90
16825;DHT22;8529;48.108;-1.706;2023-03-12T14:59:23;12.70;99.90
16825;DHT22;8529;48.108;-1.706;2023-03-12T15:01:50;12.80;99.90
16825;DHT22;8529;48.108;-1.706;2023-03-12T15:04:19;12.80;99.90
16825;DHT22;8529;48.108;-1.706;2023-03-12T15:06:48;12.80;99.90
16825;DHT22;8529;48.108;-1.706;2023-03-12T15:09:19;12.70;99.90
16825;DHT22;8529;48.108;-1.706;2023-03-12T15:11:52;12.60;99.90
16825;DHT22;8529;48.108;-1.706;2023-03-12T15:14:20;12.60;99.90
16825;DHT22;8529;48.108;-1.706;2023-03-12T15:16:48;12.60;99.90
16825;DHT22;8529;48.108;-1.706;2023-03-12T15:19:17;12.60;99.90
16825;DHT22;8529;48.108;-1.706;2023-03-12T15:21:46;12.50;99.90
16825;DHT22;8529;48.108;-1.706;2023-03-12T15:24:13;12.50;99.90
16825;DHT22;8529;48.108;-1.706;2023-03-12T15:26:41;12.50;99.90
16825;DHT22;8529;48.108;-1.706;2023-03-12T15:29:19;12.50;99.90
16825;DHT22;8529;48.108;-1.706;2023-03-12T15:31:51;12.50;99.90
16825;DHT22;8529;48.108;-1.706;2023-03-12T15:34:28;12.40;99.90
16825;DHT22;8529;48.108;-1.706;2023-03-12T15:36:57;12.50;99.90
16825;DHT22;8529;48.108;-1.706;2023-03-12T15:39:26;12.40;99.90
16825;DHT22;8529;48.108;-1.706;2023-03-12T15:41:59;12.40;99.90
16825;DHT22;8529;48.108;-1.706;2023-03-12T15:44:28;12.40;99.90
16825;DHT22;8529;48.108;-1.706;2023-03-12T15:47:02;12.40;99.90
16825;DHT22;8529;48.108;-1.706;2023-03-12T15:49:32;12.40;99.90
16825;DHT22;8529;48.108;-1.706;2023-03-12T15:52:04;12.40;99.90
16825;DHT22;8529;48.108;-1.706;2023-03-12T15:54:32;12.40;99.90
16825;DHT22;8529;48.108;-1.706;2023-03-12T15:57:20;12.40;99.90
16825;DHT22;8529;48.108;-1.706;2023-03-12T16:00:18;12.40;99.90
16825;DHT22;8529;48.108;-1.706;2023-03-12T16:02:49;12.40;99.90
16825;DHT22;8529;48.108;-1.706;2023-03-12T16:05:17;12.40;99.90
16825;DHT22;8529;48.108;-1.706;2023-03-12T16:07:44;12.40;99.90
16825;DHT22;8529;48.108;-1.706;2023-03-12T16:10:13;12.40;99.90
16825;DHT22;8529;48.108;-1.706;2023-03-12T16:12:43;12.40;99.90
16825;DHT22;8529;48.108;-1.706;2023-03-12T16:15:13;12.40;99.90
16825;DHT22;8529;48.108;-1.706;2023-03-12T16:17:41;12.40;99.90
16825;DHT22;8529;48.108;-1.706;2023-03-12T16:20:11;12.40;99.90
16825;DHT22;8529;48.108;-1.706;2023-03-12T16:22:39;12.40;99.90